sensor_id;sensor_type;location;lat;lon;timestamp;temperature;humidity
49413;DHT22;35493;50.276;9.372;2022-08-19T00:02:14;20.60;77.50
49413;DHT22;35493;50.276;9.372;2022-08-19T00:04:41;20.60;77.40
49413;DHT22;35493;50.276;9.372;2022-08-19T00:07:09;20.60;77.50
49413;DHT22;35493;50.276;9.372;2022-08-19T00:09:36;20.60;77.50
49413;DHT22;35493;50.276;9.372;2022-08-19T00:12:03;20.50;77.60
49413;DHT22;35493;50.276;9.372;2022-08-19T00:14:31;20.60;77.70
49413;DHT22;35493;50.276;9.372;2022-08-19T00:16:59;20.60;77.60
49413;DHT22;35493;50.276;9.372;2022-08-19T00:19:27;20.50;77.70
49413;DHT22;35493;50.276;9.372;2022-08-19T00:21:53;20.50;77.60
49413;DHT22;35493;50.276;9.372;2022-08-19T00:24:21;20.50;77.80
49413;DHT22;35493;50.276;9.372;2022-08-19T00:26:48;20.50;77.80
49413;DHT22;35493;50.276;9.372;2022-08-19T00:29:17;20.50;78.00
49413;DHT22;35493;50.276;9.372;2022-08-19T00:31:45;20.40;78.00
49413;DHT22;35493;50.276;9.372;2022-08-19T00:34:13;20.40;78.00
49413;DHT22;35493;50.276;9.372;2022-08-19T00:36:40;20.50;77.90
49413;DHT22;35493;50.276;9.372;2022-08-19T00:39:07;20.50;77.90
49413;DHT22;35493;50.276;9.372;2022-08-19T00:41:34;20.40;78.00
49413;DHT22;35493;50.276;9.372;2022-08-19T00:44:01;20.40;78.00
49413;DHT22;35493;50.276;9.372;2022-08-19T00:46:28;20.40;78.00
49413;DHT22;35493;50.276;9.372;2022-08-19T00:48:57;20.50;78.00
49413;DHT22;35493;50.276;9.372;2022-08-19T00:51:24;20.50;78.00
49413;DHT22;35493;50.276;9.372;2022-08-19T00:53:52;20.50;78.00
49413;DHT22;35493;50.276;9.372;2022-08-19T00:56:19;20.40;78.10
49413;DHT22;35493;50.276;9.372;2022-08-19T00:58:45;20.50;78.10
49413;DHT22;35493;50.276;9.372;2022-08-19T01:01:12;20.50;78.10
49413;DHT22;35493;50.276;9.372;2022-08-19T01:03:39;20.40;78.00
49413;DHT22;35493;50.276;9.372;2022-08-19T01:06:07;20.40;78.00
49413;DHT22;35493;50.276;9.372;2022-08-19T01:08:34;20.40;78.00
49413;DHT22;35493;50.276;9.372;2022-08-19T01:11:01;20.40;78.00
49413;DHT22;35493;50.276;9.372;2022-08-19T01:13:29;20.30;78.10
49413;DHT22;35493;50.276;9.372;2022-08-19T01:15:57;20.30;78.20
49413;DHT22;35493;50.276;9.372;2022-08-19T01:18:25;20.30;78.00
49413;DHT22;35493;50.276;9.372;2022-08-19T01:20:53;20.30;78.00
49413;DHT22;35493;50.276;9.372;2022-08-19T01:23:22;20.30;77.90
49413;DHT22;35493;50.276;9.372;2022-08-19T01:26:08;20.30;77.90
49413;DHT22;35493;50.276;9.372;2022-08-19T01:28:35;20.30;77.90
49413;DHT22;35493;50.276;9.372;2022-08-19T01:31:02;20.30;78.00
49413;DHT22;35493;50.276;9.372;2022-08-19T01:33:29;20.30;78.10
49413;DHT22;35493;50.276;9.372;2022-08-19T01:36:02;20.30;78.40
49413;DHT22;35493;50.276;9.372;2022-08-19T01:38:35;20.20;78.40
49413;DHT22;35493;50.276;9.372;2022-08-19T01:41:02;20.30;78.50
49413;DHT22;35493;50.276;9.372;2022-08-19T01:43:29;20.30;78.40
49413;DHT22;35493;50.276;9.372;2022-08-19T01:45:55;20.30;78.40
49413;DHT22;35493;50.276;9.372;2022-08-19T01:48:22;20.30;78.40
49413;DHT22;35493;50.276;9.372;2022-08-19T01:50:49;20.30;78.30
49413;DHT22;35493;50.276;9.372;2022-08-19T01:53:16;20.30;78.40
49413;DHT22;35493;50.276;9.372;2022-08-19T01:55:45;20.30;78.50
49413;DHT22;35493;50.276;9.372;2022-08-19T01:58:13;20.20;78.70
49413;DHT22;35493;50.276;9.372;2022-08-19T02:00:41;20.30;78.60
49413;DHT22;35493;50.276;9.372;2022-08-19T02:03:08;20.20;78.70
49413;DHT22;35493;50.276;9.372;2022-08-19T02:05:36;20.20;78.70
49413;DHT22;35493;50.276;9.372;2022-08-19T02:08:03;20.30;78.70
49413;DHT22;35493;50.276;9.372;2022-08-19T02:10:30;20.20;78.70
49413;DHT22;35493;50.276;9.372;2022-08-19T02:12:58;20.20;78.90
49413;DHT22;35493;50.276;9.372;2022-08-19T02:15:25;20.20;78.80
49413;DHT22;35493;50.276;9.372;2022-08-19T02:17:52;20.30;78.90
49413;DHT22;35493;50.276;9.372;2022-08-19T02:20:19;20.20;78.70
49413;DHT22;35493;50.276;9.372;2022-08-19T02:22:45;20.20;78.60
49413;DHT22;35493;50.276;9.372;2022-08-19T02:25:13;20.30;78.70
49413;DHT22;35493;50.276;9.372;2022-08-19T02:27:40;20.30;78.50
49413;DHT22;35493;50.276;9.372;2022-08-19T02:30:11;20.30;78.50
49413;DHT22;35493;50.276;9.372;2022-08-19T02:32:38;20.30;78.40
49413;DHT22;35493;50.276;9.372;2022-08-19T02:35:05;20.30;78.50
49413;DHT22;35493;50.276;9.372;2022-08-19T02:37:32;20.30;78.70
49413;DHT22;35493;50.276;9.372;2022-08-19T02:40:17;20.30;78.60
49413;DHT22;35493;50.276;9.372;2022-08-19T02:42:44;20.20;78.80
49413;DHT22;35493;50.276;9.372;2022-08-19T02:45:12;20.20;78.90
49413;DHT22;35493;50.276;9.372;2022-08-19T02:47:39;20.20;79.10
49413;DHT22;35493;50.276;9.372;2022-08-19T02:50:06;20.20;79.10
49413;DHT22;35493;50.276;9.372;2022-08-19T02:52:33;20.20;79.00
49413;DHT22;35493;50.276;9.372;2022-08-19T02:55:00;20.20;79.10
49413;DHT22;35493;50.276;9.372;2022-08-19T02:57:27;20.20;79.20
49413;DHT22;35493;50.276;9.372;2022-08-19T02:59:56;20.20;79.10
49413;DHT22;35493;50.276;9.372;2022-08-19T03:02:24;20.20;79.20
49413;DHT22;35493;50.276;9.372;2022-08-19T03:04:51;20.20;79.20
49413;DHT22;35493;50.276;9.372;2022-08-19T03:07:18;20.20;79.20
49413;DHT22;35493;50.276;9.372;2022-08-19T03:09:45;20.20;79.10
49413;DHT22;35493;50.276;9.372;2022-08-19T03:12:11;20.20;79.20
49413;DHT22;35493;50.276;9.372;2022-08-19T03:14:38;20.20;79.20
49413;DHT22;35493;50.276;9.372;2022-08-19T03:17:05;20.20;79.10
49413;DHT22;35493;50.276;9.372;2022-08-19T03:19:33;20.20;79.10
49413;DHT22;35493;50.276;9.372;2022-08-19T03:21:59;20.10;79.30
49413;DHT22;35493;50.276;9.372;2022-08-19T03:24:27;20.10;79.30
49413;DHT22;35493;50.276;9.372;2022-08-19T03:26:54;20.10;79.30
49413;DHT22;35493;50.276;9.372;2022-08-19T03:29:23;20.10;79.30
49413;DHT22;35493;50.276;9.372;2022-08-19T03:31:49;20.10;79.30
49413;DHT22;35493;50.276;9.372;2022-08-19T03:34:18;20.10;79.30
49413;DHT22;35493;50.276;9.372;2022-08-19T03:36:46;20.10;79.20
49413;DHT22;35493;50.276;9.372;2022-08-19T03:39:13;20.10;79.30
49413;DHT22;35493;50.276;9.372;2022-08-19T03:41:41;20.10;79.20
49413;DHT22;35493;50.276;9.372;2022-08-19T03:44:08;20.10;79.20
49413;DHT22;35493;50.276;9.372;2022-08-19T03:46:35;20.10;79.20
49413;DHT22;35493;50.276;9.372;2022-08-19T03:49:03;20.10;79.00
49413;DHT22;35493;50.276;9.372;2022-08-19T03:51:33;20.20;79.20
49413;DHT22;35493;50.276;9.372;2022-08-19T03:54:02;20.10;79.30
49413;DHT22;35493;50.276;9.372;2022-08-19T03:56:29;20.10;79.30
49413;DHT22;35493;50.276;9.372;2022-08-19T03:58:56;20.20;79.30
49413;DHT22;35493;50.276;9.372;2022-08-19T04:01:26;20.10;79.40
49413;DHT22;35493;50.276;9.372;2022-08-19T04:03:53;20.10;79.30
49413;DHT22;35493;50.276;9.372;2022-08-19T04:06:21;20.10;79.30
49413;DHT22;35493;50.276;9.372;2022-08-19T04:08:49;20.10;79.30
49413;DHT22;35493;50.276;9.372;2022-08-19T04:11:19;20.10;79.50
49413;DHT22;35493;50.276;9.372;2022-08-19T04:13:47;20.10;79.50
49413;DHT22;35493;50.276;9.372;2022-08-19T04:16:13;20.10;79.50
49413;DHT22;35493;50.276;9.372;2022-08-19T04:18:40;20.10;79.60
49413;DHT22;35493;50.276;9.372;2022-08-19T04:21:08;20.10;79.60
49413;DHT22;35493;50.276;9.372;2022-08-19T04:23:35;20.10;79.60
49413;DHT22;35493;50.276;9.372;2022-08-19T04:26:02;20.10;79.60
49413;DHT22;35493;50.276;9.372;2022-08-19T04:28:31;20.20;79.50
49413;DHT22;35493;50.276;9.372;2022-08-19T04:30:57;20.10;79.60
49413;DHT22;35493;50.276;9.372;2022-08-19T04:33:24;20.10;79.70
49413;DHT22;35493;50.276;9.372;2022-08-19T04:35:52;20.20;79.60
49413;DHT22;35493;50.276;9.372;2022-08-19T04:38:20;20.10;79.80
49413;DHT22;35493;50.276;9.372;2022-08-19T04:40:49;20.20;79.70
49413;DHT22;35493;50.276;9.372;2022-08-19T04:43:35;20.20;79.60
49413;DHT22;35493;50.276;9.372;2022-08-19T04:46:04;20.10;79.70
49413;DHT22;35493;50.276;9.372;2022-08-19T04:48:31;20.10;79.70
49413;DHT22;35493;50.276;9.372;2022-08-19T04:50:58;20.10;79.70
49413;DHT22;35493;50.276;9.372;2022-08-19T04:53:25;20.20;79.60
49413;DHT22;35493;50.276;9.372;2022-08-19T04:55:54;20.10;79.70
49413;DHT22;35493;50.276;9.372;2022-08-19T04:58:21;20.20;79.60
49413;DHT22;35493;50.276;9.372;2022-08-19T05:00:50;20.10;79.80
49413;DHT22;35493;50.276;9.372;2022-08-19T05:03:16;20.10;79.80
49413;DHT22;35493;50.276;9.372;2022-08-19T05:05:43;20.10;79.70
49413;DHT22;35493;50.276;9.372;2022-08-19T05:08:11;20.10;79.70
49413;DHT22;35493;50.276;9.372;2022-08-19T05:10:38;20.10;79.70
49413;DHT22;35493;50.276;9.372;2022-08-19T05:13:06;20.20;79.60
49413;DHT22;35493;50.276;9.372;2022-08-19T05:15:34;20.10;79.50
49413;DHT22;35493;50.276;9.372;2022-08-19T05:18:03;20.20;79.60
49413;DHT22;35493;50.276;9.372;2022-08-19T05:20:47;20.20;79.40
49413;DHT22;35493;50.276;9.372;2022-08-19T05:23:31;20.20;79.40
49413;DHT22;35493;50.276;9.372;2022-08-19T05:25:57;20.20;79.50
49413;DHT22;35493;50.276;9.372;2022-08-19T05:28:24;20.20;79.50
49413;DHT22;35493;50.276;9.372;2022-08-19T05:30:51;20.30;79.30
49413;DHT22;35493;50.276;9.372;2022-08-19T05:33:22;20.30;79.50
49413;DHT22;35493;50.276;9.372;2022-08-19T05:35:49;20.20;79.50
49413;DHT22;35493;50.276;9.372;2022-08-19T05:38:16;20.30;79.50
49413;DHT22;35493;50.276;9.372;2022-08-19T05:40:43;20.30;79.40
49413;DHT22;35493;50.276;9.372;2022-08-19T05:43:12;20.30;79.40
49413;DHT22;35493;50.276;9.372;2022-08-19T05:45:41;20.30;79.00
49413;DHT22;35493;50.276;9.372;2022-08-19T05:48:08;20.30;79.20
49413;DHT22;35493;50.276;9.372;2022-08-19T05:50:38;20.30;79.30
49413;DHT22;35493;50.276;9.372;2022-08-19T05:53:05;20.30;79.30
49413;DHT22;35493;50.276;9.372;2022-08-19T05:55:31;20.40;79.20
49413;DHT22;35493;50.276;9.372;2022-08-19T05:57:58;20.40;79.20
49413;DHT22;35493;50.276;9.372;2022-08-19T06:00:27;20.40;79.00
49413;DHT22;35493;50.276;9.372;2022-08-19T06:02:56;20.50;78.40
49413;DHT22;35493;50.276;9.372;2022-08-19T06:05:28;20.50;78.60
49413;DHT22;35493;50.276;9.372;2022-08-19T06:07:56;20.50;78.90
49413;DHT22;35493;50.276;9.372;2022-08-19T06:10:24;20.50;78.70
49413;DHT22;35493;50.276;9.372;2022-08-19T06:12:51;20.50;78.90
49413;DHT22;35493;50.276;9.372;2022-08-19T06:15:18;20.50;79.00
49413;DHT22;35493;50.276;9.372;2022-08-19T06:17:44;20.50;79.00
49413;DHT22;35493;50.276;9.372;2022-08-19T06:20:12;20.50;79.00
49413;DHT22;35493;50.276;9.372;2022-08-19T06:22:40;20.50;78.80
49413;DHT22;35493;50.276;9.372;2022-08-19T06:25:09;20.60;78.90
49413;DHT22;35493;50.276;9.372;2022-08-19T06:27:36;20.50;79.00
49413;DHT22;35493;50.276;9.372;2022-08-19T06:30:03;20.50;79.00
49413;DHT22;35493;50.276;9.372;2022-08-19T06:32:30;20.50;79.00
49413;DHT22;35493;50.276;9.372;2022-08-19T06:34:57;20.50;79.00
49413;DHT22;35493;50.276;9.372;2022-08-19T06:37:24;20.60;79.00
49413;DHT22;35493;50.276;9.372;2022-08-19T06:39:50;20.60;79.10
49413;DHT22;35493;50.276;9.372;2022-08-19T06:42:18;20.60;79.00
49413;DHT22;35493;50.276;9.372;2022-08-19T06:44:46;20.60;79.00
49413;DHT22;35493;50.276;9.372;2022-08-19T06:47:15;20.60;78.70
49413;DHT22;35493;50.276;9.372;2022-08-19T06:49:42;20.60;78.80
49413;DHT22;35493;50.276;9.372;2022-08-19T06:52:09;20.60;78.80
49413;DHT22;35493;50.276;9.372;2022-08-19T06:54:37;20.70;78.10
49413;DHT22;35493;50.276;9.372;2022-08-19T06:57:05;20.70;78.70
49413;DHT22;35493;50.276;9.372;2022-08-19T06:59:33;20.70;78.20
49413;DHT22;35493;50.276;9.372;2022-08-19T07:02:02;20.70;78.60
49413;DHT22;35493;50.276;9.372;2022-08-19T07:04:31;20.70;78.70
49413;DHT22;35493;50.276;9.372;2022-08-19T07:06:58;20.80;78.70
49413;DHT22;35493;50.276;9.372;2022-08-19T07:09:25;20.80;78.60
49413;DHT22;35493;50.276;9.372;2022-08-19T07:11:52;20.90;78.60
49413;DHT22;35493;50.276;9.372;2022-08-19T07:14:20;20.90;78.60
49413;DHT22;35493;50.276;9.372;2022-08-19T07:16:49;21.00;78.40
49413;DHT22;35493;50.276;9.372;2022-08-19T07:19:17;21.00;78.40
49413;DHT22;35493;50.276;9.372;2022-08-19T07:21:44;21.10;78.60
49413;DHT22;35493;50.276;9.372;2022-08-19T07:24:11;21.10;78.60
49413;DHT22;35493;50.276;9.372;2022-08-19T07:26:40;21.10;78.60
49413;DHT22;35493;50.276;9.372;2022-08-19T07:29:07;21.10;78.40
49413;DHT22;35493;50.276;9.372;2022-08-19T07:31:34;21.10;78.40
49413;DHT22;35493;50.276;9.372;2022-08-19T07:34:03;21.10;78.40
49413;DHT22;35493;50.276;9.372;2022-08-19T07:36:32;21.20;78.30
49413;DHT22;35493;50.276;9.372;2022-08-19T07:38:59;21.20;78.30
49413;DHT22;35493;50.276;9.372;2022-08-19T07:41:27;21.20;78.20
49413;DHT22;35493;50.276;9.372;2022-08-19T07:43:56;21.20;77.90
49413;DHT22;35493;50.276;9.372;2022-08-19T07:46:23;21.20;78.00
49413;DHT22;35493;50.276;9.372;2022-08-19T07:48:52;21.20;78.10
49413;DHT22;35493;50.276;9.372;2022-08-19T07:51:21;21.20;78.00
49413;DHT22;35493;50.276;9.372;2022-08-19T07:53:48;21.20;78.10
49413;DHT22;35493;50.276;9.372;2022-08-19T07:56:16;21.10;78.20
49413;DHT22;35493;50.276;9.372;2022-08-19T07:58:48;21.10;78.20
49413;DHT22;35493;50.276;9.372;2022-08-19T08:01:33;21.10;78.30
49413;DHT22;35493;50.276;9.372;2022-08-19T08:04:00;21.10;78.20
49413;DHT22;35493;50.276;9.372;2022-08-19T08:06:45;21.20;78.20
49413;DHT22;35493;50.276;9.372;2022-08-19T08:09:30;21.20;78.30
49413;DHT22;35493;50.276;9.372;2022-08-19T08:11:59;21.20;78.20
49413;DHT22;35493;50.276;9.372;2022-08-19T08:14:27;21.20;78.20
49413;DHT22;35493;50.276;9.372;2022-08-19T08:16:54;21.30;78.20
49413;DHT22;35493;50.276;9.372;2022-08-19T08:19:21;21.30;77.60
49413;DHT22;35493;50.276;9.372;2022-08-19T08:21:50;21.30;78.00
49413;DHT22;35493;50.276;9.372;2022-08-19T08:24:17;21.30;78.00
49413;DHT22;35493;50.276;9.372;2022-08-19T08:26:44;21.40;78.00
49413;DHT22;35493;50.276;9.372;2022-08-19T08:29:11;21.40;77.60
49413;DHT22;35493;50.276;9.372;2022-08-19T08:31:38;21.40;77.80
49413;DHT22;35493;50.276;9.372;2022-08-19T08:34:05;21.50;77.40
49413;DHT22;35493;50.276;9.372;2022-08-19T08:36:32;21.60;77.60
49413;DHT22;35493;50.276;9.372;2022-08-19T08:39:00;21.60;77.40
49413;DHT22;35493;50.276;9.372;2022-08-19T08:41:28;21.70;77.40
49413;DHT22;35493;50.276;9.372;2022-08-19T08:43:57;21.70;77.30
49413;DHT22;35493;50.276;9.372;2022-08-19T08:46:26;21.80;77.10
49413;DHT22;35493;50.276;9.372;2022-08-19T08:48:56;21.90;77.00
49413;DHT22;35493;50.276;9.372;2022-08-19T08:51:25;21.90;76.00
49413;DHT22;35493;50.276;9.372;2022-08-19T08:53:54;22.00;75.40
49413;DHT22;35493;50.276;9.372;2022-08-19T08:56:22;22.10;75.50
49413;DHT22;35493;50.276;9.372;2022-08-19T08:58:51;22.10;74.90
49413;DHT22;35493;50.276;9.372;2022-08-19T09:01:21;22.20;74.00
49413;DHT22;35493;50.276;9.372;2022-08-19T09:03:47;22.40;73.70
49413;DHT22;35493;50.276;9.372;2022-08-19T09:06:17;22.60;73.30
49413;DHT22;35493;50.276;9.372;2022-08-19T09:08:48;22.70;71.80
49413;DHT22;35493;50.276;9.372;2022-08-19T09:11:18;22.90;71.80
49413;DHT22;35493;50.276;9.372;2022-08-19T09:13:49;23.00;70.40
49413;DHT22;35493;50.276;9.372;2022-08-19T09:16:20;23.20;69.80
49413;DHT22;35493;50.276;9.372;2022-08-19T09:18:50;23.30;69.90
49413;DHT22;35493;50.276;9.372;2022-08-19T09:21:18;23.40;69.90
49413;DHT22;35493;50.276;9.372;2022-08-19T09:23:45;23.50;69.50
49413;DHT22;35493;50.276;9.372;2022-08-19T09:26:13;23.60;68.90
49413;DHT22;35493;50.276;9.372;2022-08-19T09:28:40;23.60;68.00
49413;DHT22;35493;50.276;9.372;2022-08-19T09:31:10;23.70;67.70
49413;DHT22;35493;50.276;9.372;2022-08-19T09:33:37;23.70;66.90
49413;DHT22;35493;50.276;9.372;2022-08-19T09:36:05;23.80;68.00
49413;DHT22;35493;50.276;9.372;2022-08-19T09:38:32;23.80;67.50
49413;DHT22;35493;50.276;9.372;2022-08-19T09:41:02;23.80;67.00
49413;DHT22;35493;50.276;9.372;2022-08-19T09:43:29;23.80;67.40
49413;DHT22;35493;50.276;9.372;2022-08-19T09:45:56;23.90;66.90
49413;DHT22;35493;50.276;9.372;2022-08-19T09:48:25;24.00;66.80
49413;DHT22;35493;50.276;9.372;2022-08-19T09:50:52;24.10;65.80
49413;DHT22;35493;50.276;9.372;2022-08-19T09:53:18;24.20;65.70
49413;DHT22;35493;50.276;9.372;2022-08-19T09:55:48;24.30;64.80
49413;DHT22;35493;50.276;9.372;2022-08-19T09:58:15;24.30;63.90
49413;DHT22;35493;50.276;9.372;2022-08-19T10:00:42;24.40;64.30
49413;DHT22;35493;50.276;9.372;2022-08-19T10:03:09;24.50;63.80
49413;DHT22;35493;50.276;9.372;2022-08-19T10:05:38;24.50;63.50
49413;DHT22;35493;50.276;9.372;2022-08-19T10:08:18;24.60;63.50
49413;DHT22;35493;50.276;9.372;2022-08-19T10:10:45;24.60;63.20
49413;DHT22;35493;50.276;9.372;2022-08-19T10:13:13;24.70;63.20
49413;DHT22;35493;50.276;9.372;2022-08-19T10:15:40;24.80;63.40
49413;DHT22;35493;50.276;9.372;2022-08-19T10:18:06;24.90;62.80
49413;DHT22;35493;50.276;9.372;2022-08-19T10:20:33;25.00;62.80
49413;DHT22;35493;50.276;9.372;2022-08-19T10:23:02;25.10;62.50
49413;DHT22;35493;50.276;9.372;2022-08-19T10:25:29;25.10;62.40
49413;DHT22;35493;50.276;9.372;2022-08-19T10:27:56;25.30;61.70
49413;DHT22;35493;50.276;9.372;2022-08-19T10:30:23;25.30;61.40
49413;DHT22;35493;50.276;9.372;2022-08-19T10:32:49;25.50;60.30
49413;DHT22;35493;50.276;9.372;2022-08-19T10:35:16;25.60;59.60
49413;DHT22;35493;50.276;9.372;2022-08-19T10:37:43;25.70;59.90
49413;DHT22;35493;50.276;9.372;2022-08-19T10:40:11;25.80;58.30
49413;DHT22;35493;50.276;9.372;2022-08-19T10:42:38;25.90;58.50
49413;DHT22;35493;50.276;9.372;2022-08-19T10:45:05;26.00;58.10
49413;DHT22;35493;50.276;9.372;2022-08-19T10:47:33;26.10;58.00
49413;DHT22;35493;50.276;9.372;2022-08-19T10:50:00;26.20;57.10
49413;DHT22;35493;50.276;9.372;2022-08-19T10:52:48;26.30;57.30
49413;DHT22;35493;50.276;9.372;2022-08-19T10:55:16;26.50;56.80
49413;DHT22;35493;50.276;9.372;2022-08-19T10:58:01;26.60;56.80
49413;DHT22;35493;50.276;9.372;2022-08-19T11:00:27;26.70;56.70
49413;DHT22;35493;50.276;9.372;2022-08-19T11:03:01;26.70;56.20
49413;DHT22;35493;50.276;9.372;2022-08-19T11:05:28;26.70;56.30
49413;DHT22;35493;50.276;9.372;2022-08-19T11:07:55;26.60;55.40
49413;DHT22;35493;50.276;9.372;2022-08-19T11:10:23;26.60;55.50
49413;DHT22;35493;50.276;9.372;2022-08-19T11:12:50;26.80;54.40
49413;DHT22;35493;50.276;9.372;2022-08-19T11:15:19;26.90;54.80
49413;DHT22;35493;50.276;9.372;2022-08-19T11:17:46;27.00;53.70
49413;DHT22;35493;50.276;9.372;2022-08-19T11:20:13;27.10;53.90
49413;DHT22;35493;50.276;9.372;2022-08-19T11:22:40;27.10;53.90
49413;DHT22;35493;50.276;9.372;2022-08-19T11:25:08;27.00;54.30
49413;DHT22;35493;50.276;9.372;2022-08-19T11:27:38;27.00;54.40
49413;DHT22;35493;50.276;9.372;2022-08-19T11:30:07;27.00;54.10
49413;DHT22;35493;50.276;9.372;2022-08-19T11:32:34;27.10;54.00
49413;DHT22;35493;50.276;9.372;2022-08-19T11:35:01;27.00;54.30
49413;DHT22;35493;50.276;9.372;2022-08-19T11:37:28;27.00;54.20
49413;DHT22;35493;50.276;9.372;2022-08-19T11:39:54;26.90;54.20
49413;DHT22;35493;50.276;9.372;2022-08-19T11:42:21;26.80;53.90
49413;DHT22;35493;50.276;9.372;2022-08-19T11:45:07;26.70;54.20
49413;DHT22;35493;50.276;9.372;2022-08-19T11:47:34;26.70;53.30
49413;DHT22;35493;50.276;9.372;2022-08-19T11:50:02;26.60;53.50
49413;DHT22;35493;50.276;9.372;2022-08-19T11:52:29;26.60;53.50
49413;DHT22;35493;50.276;9.372;2022-08-19T11:54:56;26.60;53.20
49413;DHT22;35493;50.276;9.372;2022-08-19T11:57:23;26.60;52.30
49413;DHT22;35493;50.276;9.372;2022-08-19T11:59:50;26.60;52.40
49413;DHT22;35493;50.276;9.372;2022-08-19T12:02:18;26.80;52.50
49413;DHT22;35493;50.276;9.372;2022-08-19T12:04:45;26.80;52.60
49413;DHT22;35493;50.276;9.372;2022-08-19T12:07:12;26.90;52.30
49413;DHT22;35493;50.276;9.372;2022-08-19T12:09:39;27.00;51.80
49413;DHT22;35493;50.276;9.372;2022-08-19T12:12:06;27.10;51.20
49413;DHT22;35493;50.276;9.372;2022-08-19T12:14:33;27.20;51.30
49413;DHT22;35493;50.276;9.372;2022-08-19T12:17:00;27.30;51.60
49413;DHT22;35493;50.276;9.372;2022-08-19T12:19:29;27.30;50.70
49413;DHT22;35493;50.276;9.372;2022-08-19T12:21:58;27.40;50.40
49413;DHT22;35493;50.276;9.372;2022-08-19T12:24:27;27.40;49.80
49413;DHT22;35493;50.276;9.372;2022-08-19T12:26:54;27.40;49.20
49413;DHT22;35493;50.276;9.372;2022-08-19T12:29:22;27.40;50.20
49413;DHT22;35493;50.276;9.372;2022-08-19T12:31:53;27.40;50.50
49413;DHT22;35493;50.276;9.372;2022-08-19T12:34:28;27.40;49.30
49413;DHT22;35493;50.276;9.372;2022-08-19T12:36:58;27.40;49.30
49413;DHT22;35493;50.276;9.372;2022-08-19T12:39:25;27.50;48.80
49413;DHT22;35493;50.276;9.372;2022-08-19T12:41:52;27.50;49.00
49413;DHT22;35493;50.276;9.372;2022-08-19T12:44:19;27.50;49.20
49413;DHT22;35493;50.276;9.372;2022-08-19T12:46:46;27.40;49.10
49413;DHT22;35493;50.276;9.372;2022-08-19T12:49:13;27.40;49.00
49413;DHT22;35493;50.276;9.372;2022-08-19T12:51:40;27.30;49.00
49413;DHT22;35493;50.276;9.372;2022-08-19T12:54:09;27.20;49.40
49413;DHT22;35493;50.276;9.372;2022-08-19T12:56:36;27.20;49.40
49413;DHT22;35493;50.276;9.372;2022-08-19T12:59:03;27.10;49.60
49413;DHT22;35493;50.276;9.372;2022-08-19T13:01:30;27.00;49.70
49413;DHT22;35493;50.276;9.372;2022-08-19T13:03:58;26.90;50.00
49413;DHT22;35493;50.276;9.372;2022-08-19T13:06:25;26.90;50.00
49413;DHT22;35493;50.276;9.372;2022-08-19T13:08:51;26.90;50.00
49413;DHT22;35493;50.276;9.372;2022-08-19T13:11:20;26.90;50.10
49413;DHT22;35493;50.276;9.372;2022-08-19T13:13:50;26.90;50.10
49413;DHT22;35493;50.276;9.372;2022-08-19T13:16:18;26.80;50.30
49413;DHT22;35493;50.276;9.372;2022-08-19T13:18:45;26.80;50.50
49413;DHT22;35493;50.276;9.372;2022-08-19T13:21:13;26.80;50.90
49413;DHT22;35493;50.276;9.372;2022-08-19T13:23:40;26.70;51.30
49413;DHT22;35493;50.276;9.372;2022-08-19T13:26:08;26.60;51.40
49413;DHT22;35493;50.276;9.372;2022-08-19T13:28:36;26.70;51.80
49413;DHT22;35493;50.276;9.372;2022-08-19T13:31:20;26.60;51.90
49413;DHT22;35493;50.276;9.372;2022-08-19T13:34:05;26.60;52.40
49413;DHT22;35493;50.276;9.372;2022-08-19T13:36:32;26.60;52.10
49413;DHT22;35493;50.276;9.372;2022-08-19T13:38:59;26.60;51.90
49413;DHT22;35493;50.276;9.372;2022-08-19T13:41:26;26.50;52.00
49413;DHT22;35493;50.276;9.372;2022-08-19T13:43:54;26.50;51.70
49413;DHT22;35493;50.276;9.372;2022-08-19T13:46:21;26.50;51.60
49413;DHT22;35493;50.276;9.372;2022-08-19T13:48:48;26.40;51.60
49413;DHT22;35493;50.276;9.372;2022-08-19T13:51:16;26.30;51.70
49413;DHT22;35493;50.276;9.372;2022-08-19T13:53:43;26.30;51.80
49413;DHT22;35493;50.276;9.372;2022-08-19T13:56:11;26.30;52.00
49413;DHT22;35493;50.276;9.372;2022-08-19T13:58:38;26.20;52.20
49413;DHT22;35493;50.276;9.372;2022-08-19T14:01:07;26.30;52.50
49413;DHT22;35493;50.276;9.372;2022-08-19T14:03:34;26.30;52.80
49413;DHT22;35493;50.276;9.372;2022-08-19T14:06:01;26.30;53.00
49413;DHT22;35493;50.276;9.372;2022-08-19T14:08:28;26.30;52.90
49413;DHT22;35493;50.276;9.372;2022-08-19T14:10:57;26.30;52.80
49413;DHT22;35493;50.276;9.372;2022-08-19T14:13:24;26.30;52.90
49413;DHT22;35493;50.276;9.372;2022-08-19T14:15:51;26.40;53.00
49413;DHT22;35493;50.276;9.372;2022-08-19T14:18:19;26.40;52.80
49413;DHT22;35493;50.276;9.372;2022-08-19T14:20:46;26.40;53.00
49413;DHT22;35493;50.276;9.372;2022-08-19T14:23:13;26.50;52.90
49413;DHT22;35493;50.276;9.372;2022-08-19T14:25:40;26.50;52.60
49413;DHT22;35493;50.276;9.372;2022-08-19T14:28:06;26.50;52.70
49413;DHT22;35493;50.276;9.372;2022-08-19T14:30:34;26.60;52.60
49413;DHT22;35493;50.276;9.372;2022-08-19T14:33:03;26.60;52.50
49413;DHT22;35493;50.276;9.372;2022-08-19T14:35:32;26.60;52.60
49413;DHT22;35493;50.276;9.372;2022-08-19T14:38:00;26.60;52.80
49413;DHT22;35493;50.276;9.372;2022-08-19T14:40:27;26.60;52.80
49413;DHT22;35493;50.276;9.372;2022-08-19T14:42:55;26.60;52.80
49413;DHT22;35493;50.276;9.372;2022-08-19T14:45:24;26.70;52.60
49413;DHT22;35493;50.276;9.372;2022-08-19T14:47:51;26.80;52.70
49413;DHT22;35493;50.276;9.372;2022-08-19T14:50:18;26.70;52.70
49413;DHT22;35493;50.276;9.372;2022-08-19T14:52:46;26.80;52.70
49413;DHT22;35493;50.276;9.372;2022-08-19T14:55:14;26.80;52.70
49413;DHT22;35493;50.276;9.372;2022-08-19T14:57:41;26.80;52.20
49413;DHT22;35493;50.276;9.372;2022-08-19T15:00:08;26.80;52.30
49413;DHT22;35493;50.276;9.372;2022-08-19T15:02:38;26.80;52.30
49413;DHT22;35493;50.276;9.372;2022-08-19T15:05:05;26.90;51.80
49413;DHT22;35493;50.276;9.372;2022-08-19T15:07:31;26.80;51.80
49413;DHT22;35493;50.276;9.372;2022-08-19T15:10:00;26.80;51.70
49413;DHT22;35493;50.276;9.372;2022-08-19T15:12:27;26.80;51.60
49413;DHT22;35493;50.276;9.372;2022-08-19T15:14:54;26.80;51.60
49413;DHT22;35493;50.276;9.372;2022-08-19T15:17:21;26.80;51.70
49413;DHT22;35493;50.276;9.372;2022-08-19T15:19:47;26.80;51.80
49413;DHT22;35493;50.276;9.372;2022-08-19T15:22:14;26.80;52.10
49413;DHT22;35493;50.276;9.372;2022-08-19T15:24:41;26.70;52.10
49413;DHT22;35493;50.276;9.372;2022-08-19T15:27:12;26.60;52.30
49413;DHT22;35493;50.276;9.372;2022-08-19T15:29:39;26.60;52.80
49413;DHT22;35493;50.276;9.372;2022-08-19T15:32:06;26.60;52.30
49413;DHT22;35493;50.276;9.372;2022-08-19T15:34:34;26.60;52.20
49413;DHT22;35493;50.276;9.372;2022-08-19T15:37:01;26.60;52.30